Time;durP1;ratioP1;P1;durP2;ratioP2;P2;SDS_P1;SDS_P2;PMS_P1;PMS_P2;Temp;Humidity;BMP_temperature;BMP_pressure;BME280_temperature;BME280_humidity;BME280_pressure;Samples;Min_cycle;Max_cycle;Signal;HPM_P1;HPM_P2
2021/10/19 00:00:11;;;;;;;24.33;21.73;;;;;;;;;;696257;28;991;-63
2021/10/19 00:00:31;;;;;;;24.02;21.42;;;;;;;;;;696140;28;1345;-63
2021/10/19 00:00:51;;;;;;;24.30;21.73;;;;;;;;;;696168;28;1973;-63
2021/10/19 00:01:11;;;;;;;24.83;22.13;;;;;;;;;;696248;28;836;-63
2021/10/19 00:01:31;;;;;;;24.40;21.90;;;;;;;;;;696153;28;916;-63
2021/10/19 00:01:52;;;;;;;24.17;21.67;;;;;;;;;;696343;28;872;-63
2021/10/19 00:02:12;;;;;;;24.50;21.87;;;;;;;;;;696207;28;917;-62
2021/10/19 00:02:32;;;;;;;24.52;21.90;;;;;;;;;;696219;28;998;-62
2021/10/19 00:02:52;;;;;;;24.83;22.23;;;;;;;;;;695747;28;1253;-62
2021/10/19 00:03:12;;;;;;;25.17;22.57;;;;;;;;;;696242;28;883;-63
2021/10/19 00:03:32;;;;;;;23.40;21.00;;;;;;;;;;696036;28;1007;-61
2021/10/19 00:03:52;;;;;;;24.37;21.77;;;;;;;;;;696270;28;856;-62
2021/10/19 00:04:16;;;;;;;24.87;22.20;;;;;;;;;;696294;28;908;-62
2021/10/19 00:04:36;;;;;;;24.52;21.92;;;;;;;;;;696257;28;951;-63
2021/10/19 00:04:56;;;;;;;23.87;21.47;;;;;;;;;;696132;28;1134;-63
2021/10/19 00:05:16;;;;;;;24.57;22.00;;;;;;;;;;696354;28;948;-63
2021/10/19 00:05:37;;;;;;;24.98;22.25;;;;;;;;;;696200;28;1050;-62
2021/10/19 00:05:57;;;;;;;25.20;22.50;;;;;;;;;;696261;28;892;-63
2021/10/19 00:06:17;;;;;;;24.67;22.00;;;;;;;;;;696311;28;987;-62
2021/10/19 00:06:37;;;;;;;24.10;21.50;;;;;;;;;;696100;28;916;-62
2021/10/19 00:06:57;;;;;;;24.30;21.70;;;;;;;;;;696328;28;994;-62
2021/10/19 00:07:17;;;;;;;23.80;21.30;;;;;;;;;;696237;28;1014;-62
2021/10/19 00:07:41;;;;;;;24.43;21.83;;;;;;;;;;696104;28;884;-63
2021/10/19 00:08:01;;;;;;;23.92;21.38;;;;;;;;;;696375;28;840;-63
2021/10/19 00:08:21;;;;;;;23.30;20.93;;;;;;;;;;696220;28;796;-62
2021/10/19 00:08:42;;;;;;;24.30;21.80;;;;;;;;;;696219;28;983;-62
2021/10/19 00:09:02;;;;;;;24.77;22.03;;;;;;;;;;696312;28;822;-63
2021/10/19 00:09:22;;;;;;;24.85;22.15;;;;;;;;;;695973;28;1292;-62
2021/10/19 00:09:51;;;;;;;24.47;21.87;;;;;;;;;;696237;28;898;-63
2021/10/19 00:10:12;;;;;;;24.80;22.20;;;;;;;;;;696158;28;1117;-63
2021/10/19 00:10:35;;;;;;;23.33;20.83;;;;;;;;;;696273;28;904;-63
2021/10/19 00:10:58;;;;;;;24.30;21.70;;;;;;;;;;696260;28;754;-63
2021/10/19 00:11:18;;;;;;;24.30;21.70;;;;;;;;;;696235;28;825;-63
2021/10/19 00:11:38;;;;;;;24.47;21.93;;;;;;;;;;696221;28;975;-63
2021/10/19 00:11:58;;;;;;;24.17;21.67;;;;;;;;;;696205;28;931;-63
2021/10/19 00:12:19;;;;;;;24.10;21.60;;;;;;;;;;696418;28;812;-63
2021/10/19 00:12:39;;;;;;;24.47;21.97;;;;;;;;;;695841;28;1308;-63
2021/10/19 00:13:00;;;;;;;24.63;21.63;;;;;;;;;;695912;28;875;-63
2021/10/19 00:13:20;;;;;;;25.40;22.40;;;;;;;;;;696429;28;781;-63
2021/10/19 00:13:41;;;;;;;25.13;22.47;;;;;;;;;;696182;28;880;-64
2021/10/19 00:14:01;;;;;;;25.05;22.20;;;;;;;;;;696260;28;976;-63
2021/10/19 00:14:22;;;;;;;24.57;21.50;;;;;;;;;;696412;28;829;-63
2021/10/19 00:14:42;;;;;;;24.43;21.83;;;;;;;;;;696183;28;902;-63
2021/10/19 00:15:03;;;;;;;24.67;21.77;;;;;;;;;;696330;28;860;-63
2021/10/19 00:15:23;;;;;;;24.63;21.85;;;;;;;;;;696411;28;863;-63
2021/10/19 00:15:43;;;;;;;24.67;21.93;;;;;;;;;;696139;28;911;-63
2021/10/19 00:16:04;;;;;;;24.37;21.87;;;;;;;;;;696419;28;772;-63
2021/10/19 00:16:24;;;;;;;24.20;21.63;;;;;;;;;;696394;28;886;-63
2021/10/19 00:16:45;;;;;;;24.20;21.70;;;;;;;;;;696319;28;881;-63
2021/10/19 00:17:07;;;;;;;24.15;21.63;;;;;;;;;;696272;28;1042;-63
2021/10/19 00:17:27;;;;;;;24.15;21.55;;;;;;;;;;696262;28;852;-63
2021/10/19 00:17:48;;;;;;;24.67;21.97;;;;;;;;;;696302;28;785;-63
2021/10/19 00:18:08;;;;;;;25.15;21.92;;;;;;;;;;696431;28;817;-62
2021/10/19 00:18:29;;;;;;;25.70;22.30;;;;;;;;;;696303;28;789;-63
2021/10/19 00:18:49;;;;;;;25.07;22.27;;;;;;;;;;696318;28;816;-62
2021/10/19 00:19:09;;;;;;;25.07;22.40;;;;;;;;;;696213;28;982;-62
2021/10/19 00:19:29;;;;;;;24.90;22.23;;;;;;;;;;696319;28;884;-62
2021/10/19 00:19:49;;;;;;;24.73;22.07;;;;;;;;;;696316;28;828;-62
2021/10/19 00:20:10;;;;;;;24.90;22.30;;;;;;;;;;696291;28;950;-62
2021/10/19 00:20:30;;;;;;;25.77;22.45;;;;;;;;;;696391;28;843;-63
2021/10/19 00:20:51;;;;;;;24.77;22.03;;;;;;;;;;696265;28;1983;-62
2021/10/19 00:21:17;;;;;;;25.00;22.30;;;;;;;;;;696510;28;851;-63
2021/10/19 00:21:37;;;;;;;25.05;22.42;;;;;;;;;;696764;28;941;-62
2021/10/19 00:21:57;;;;;;;24.50;21.90;;;;;;;;;;696683;28;852;-63
2021/10/19 00:22:17;;;;;;;24.83;22.10;;;;;;;;;;696677;28;852;-63
2021/10/19 00:22:38;;;;;;;25.07;22.43;;;;;;;;;;696823;28;1363;-62
2021/10/19 00:22:58;;;;;;;25.88;22.83;;;;;;;;;;696255;28;1018;-63
2021/10/19 00:23:19;;;;;;;25.07;22.37;;;;;;;;;;696635;28;872;-62
2021/10/19 00:23:39;;;;;;;25.42;22.73;;;;;;;;;;696547;28;864;-63
2021/10/19 00:24:02;;;;;;;25.57;22.80;;;;;;;;;;696780;28;770;-62
2021/10/19 00:24:24;;;;;;;24.45;21.85;;;;;;;;;;696666;28;943;-63
2021/10/19 00:24:44;;;;;;;25.38;22.67;;;;;;;;;;696752;28;899;-63
2021/10/19 00:25:05;;;;;;;25.27;22.60;;;;;;;;;;696515;28;951;-64
2021/10/19 00:25:25;;;;;;;24.25;21.65;;;;;;;;;;696542;28;835;-63
2021/10/19 00:25:46;;;;;;;24.53;21.83;;;;;;;;;;696689;28;888;-63
2021/10/19 00:26:06;;;;;;;25.20;22.50;;;;;;;;;;696498;28;871;-64
2021/10/19 00:26:26;;;;;;;25.47;22.77;;;;;;;;;;696244;28;1038;-63
2021/10/19 00:26:46;;;;;;;25.83;23.13;;;;;;;;;;696296;28;1015;-62
2021/10/19 00:27:06;;;;;;;25.98;23.17;;;;;;;;;;696452;28;963;-64
2021/10/19 00:27:26;;;;;;;25.73;23.00;;;;;;;;;;696145;28;872;-64
2021/10/19 00:27:47;;;;;;;25.33;22.73;;;;;;;;;;696190;28;1032;-64
2021/10/19 00:28:08;;;;;;;25.73;23.05;;;;;;;;;;696295;28;843;-63
2021/10/19 00:28:28;;;;;;;25.20;22.50;;;;;;;;;;696388;28;729;-62
2021/10/19 00:28:48;;;;;;;25.02;22.40;;;;;;;;;;696287;28;959;-62
2021/10/19 00:29:08;;;;;;;25.13;22.43;;;;;;;;;;696067;28;979;-62
2021/10/19 00:29:28;;;;;;;25.00;22.30;;;;;;;;;;696162;28;869;-62
2021/10/19 00:29:49;;;;;;;25.60;22.40;;;;;;;;;;696232;28;816;-62
2021/10/19 00:30:10;;;;;;;25.75;22.90;;;;;;;;;;696230;28;900;-62
2021/10/19 00:30:30;;;;;;;26.23;23.35;;;;;;;;;;696326;28;1117;-62
2021/10/19 00:30:51;;;;;;;25.88;22.88;;;;;;;;;;696338;28;1034;-62
2021/10/19 00:31:11;;;;;;;26.37;23.40;;;;;;;;;;696289;28;880;-62
2021/10/19 00:31:31;;;;;;;24.67;22.03;;;;;;;;;;696122;28;1011;-63
2021/10/19 00:31:52;;;;;;;25.50;22.70;;;;;;;;;;696108;28;1042;-62
2021/10/19 00:32:12;;;;;;;25.13;22.45;;;;;;;;;;696693;28;911;-63
2021/10/19 00:32:32;;;;;;;25.08;22.48;;;;;;;;;;697218;28;841;-63
2021/10/19 00:32:53;;;;;;;26.40;23.67;;;;;;;;;;696386;28;1489;-63
2021/10/19 00:33:13;;;;;;;26.35;23.55;;;;;;;;;;697030;28;1043;-63
2021/10/19 00:33:34;;;;;;;26.37;23.57;;;;;;;;;;697095;28;821;-63
2021/10/19 00:33:54;;;;;;;25.70;23.00;;;;;;;;;;696982;28;943;-63
2021/10/19 00:34:14;;;;;;;26.23;23.43;;;;;;;;;;696877;28;1181;-62
2021/10/19 00:34:37;;;;;;;26.23;23.42;;;;;;;;;;697010;28;828;-62
2021/10/19 00:34:57;;;;;;;26.20;23.20;;;;;;;;;;697092;28;864;-62
2021/10/19 00:35:18;;;;;;;26.20;23.20;;;;;;;;;;697257;28;883;-62
2021/10/19 00:35:38;;;;;;;26.87;24.00;;;;;;;;;;697017;28;999;-62
2021/10/19 00:35:58;;;;;;;26.13;23.42;;;;;;;;;;697093;28;821;-64
2021/10/19 00:36:18;;;;;;;26.13;23.33;;;;;;;;;;696502;28;1007;-63
2021/10/19 00:36:38;;;;;;;26.37;23.50;;;;;;;;;;697006;28;851;-63
2021/10/19 00:36:58;;;;;;;26.53;23.37;;;;;;;;;;697012;28;821;-62
2021/10/19 00:37:21;;;;;;;25.92;22.30;;;;;;;;;;696856;28;1049;-63
2021/10/19 00:37:41;;;;;;;25.08;22.38;;;;;;;;;;696965;28;868;-63
2021/10/19 00:38:01;;;;;;;25.57;22.77;;;;;;;;;;696984;28;920;-64
2021/10/19 00:38:21;;;;;;;27.08;22.88;;;;;;;;;;696668;28;1015;-63
2021/10/19 00:38:42;;;;;;;25.47;22.73;;;;;;;;;;696639;28;792;-62
2021/10/19 00:39:02;;;;;;;24.80;22.23;;;;;;;;;;696162;28;1058;-63
2021/10/19 00:39:22;;;;;;;24.98;22.38;;;;;;;;;;696318;28;1003;-62
2021/10/19 00:39:42;;;;;;;25.67;22.97;;;;;;;;;;696180;28;872;-63
2021/10/19 00:40:04;;;;;;;25.63;22.50;;;;;;;;;;696016;28;1017;-63
2021/10/19 00:40:24;;;;;;;25.50;22.40;;;;;;;;;;696255;28;869;-63
2021/10/19 00:40:44;;;;;;;24.90;22.20;;;;;;;;;;696159;28;849;-63
2021/10/19 00:41:04;;;;;;;25.70;22.83;;;;;;;;;;696212;28;1910;-62
2021/10/19 00:41:24;;;;;;;25.63;22.80;;;;;;;;;;696338;28;945;-63
2021/10/19 00:41:45;;;;;;;25.47;22.77;;;;;;;;;;696069;28;786;-63
2021/10/19 00:42:05;;;;;;;27.03;23.07;;;;;;;;;;696193;28;975;-63
2021/10/19 00:42:25;;;;;;;27.90;23.17;;;;;;;;;;696276;28;1006;-62
2021/10/19 00:42:45;;;;;;;26.13;23.17;;;;;;;;;;695626;28;1312;-62
2021/10/19 00:43:06;;;;;;;26.20;23.13;;;;;;;;;;696271;28;975;-63
2021/10/19 00:43:26;;;;;;;26.35;23.38;;;;;;;;;;696155;28;891;-63
2021/10/19 00:43:47;;;;;;;26.50;23.60;;;;;;;;;;696135;28;809;-62
2021/10/19 00:44:07;;;;;;;26.80;23.27;;;;;;;;;;696220;28;864;-62
2021/10/19 00:44:28;;;;;;;25.83;23.00;;;;;;;;;;696152;28;823;-63
2021/10/19 00:44:48;;;;;;;25.70;22.90;;;;;;;;;;696250;28;908;-63
2021/10/19 00:45:08;;;;;;;26.20;23.40;;;;;;;;;;696189;28;983;-63
2021/10/19 00:45:29;;;;;;;26.05;23.30;;;;;;;;;;696048;28;1349;-62
2021/10/19 00:45:52;;;;;;;26.93;23.73;;;;;;;;;;696100;28;935;-63
2021/10/19 00:46:14;;;;;;;26.45;23.55;;;;;;;;;;696108;28;1030;-62
2021/10/19 00:46:34;;;;;;;27.23;24.20;;;;;;;;;;696245;28;915;-62
2021/10/19 00:46:57;;;;;;;26.98;24.08;;;;;;;;;;696187;28;1055;-62
2021/10/19 00:47:22;;;;;;;27.35;23.13;;;;;;;;;;696067;28;1399;-63
2021/10/19 00:47:50;;;;;;;27.60;23.75;;;;;;;;;;696209;28;856;-63
2021/10/19 00:48:16;;;;;;;27.20;24.33;;;;;;;;;;696099;28;923;-63
2021/10/19 00:48:38;;;;;;;26.52;23.63;;;;;;;;;;696201;28;932;-62
2021/10/19 00:48:59;;;;;;;27.55;24.38;;;;;;;;;;696096;28;1093;-62
2021/10/19 00:49:19;;;;;;;28.23;25.25;;;;;;;;;;696209;28;1038;-64
2021/10/19 00:49:39;;;;;;;27.80;24.83;;;;;;;;;;696200;28;861;-62
2021/10/19 00:49:59;;;;;;;27.17;24.23;;;;;;;;;;696108;28;979;-64
2021/10/19 00:50:19;;;;;;;26.47;23.67;;;;;;;;;;696161;28;908;-63
2021/10/19 00:50:40;;;;;;;27.10;24.17;;;;;;;;;;696198;28;844;-62
2021/10/19 00:51:00;;;;;;;27.47;24.53;;;;;;;;;;696687;28;1037;-62
2021/10/19 00:51:21;;;;;;;27.57;23.97;;;;;;;;;;696752;28;876;-62
2021/10/19 00:51:41;;;;;;;26.40;23.55;;;;;;;;;;696575;28;967;-63
2021/10/19 00:52:02;;;;;;;26.33;23.50;;;;;;;;;;696627;28;840;-62
2021/10/19 00:52:22;;;;;;;27.20;23.92;;;;;;;;;;696648;28;1006;-63
2021/10/19 00:52:42;;;;;;;27.57;24.57;;;;;;;;;;696450;28;1402;-62
2021/10/19 00:53:03;;;;;;;27.05;24.10;;;;;;;;;;696575;28;836;-62
2021/10/19 00:53:24;;;;;;;26.48;23.55;;;;;;;;;;696750;28;844;-62
2021/10/19 00:53:44;;;;;;;26.73;23.93;;;;;;;;;;696666;28;825;-62
2021/10/19 00:54:05;;;;;;;27.05;24.15;;;;;;;;;;696685;28;824;-62
2021/10/19 00:54:25;;;;;;;27.80;24.13;;;;;;;;;;696495;28;1010;-62
2021/10/19 00:54:46;;;;;;;29.03;24.50;;;;;;;;;;696797;28;837;-62
2021/10/19 00:55:07;;;;;;;28.27;24.63;;;;;;;;;;696553;28;909;-63
2021/10/19 00:55:28;;;;;;;27.55;24.55;;;;;;;;;;696656;28;1073;-63
2021/10/19 00:55:48;;;;;;;28.55;25.00;;;;;;;;;;696644;28;828;-63
2021/10/19 00:56:09;;;;;;;27.63;24.37;;;;;;;;;;696636;28;859;-63
2021/10/19 00:56:32;;;;;;;27.08;24.15;;;;;;;;;;696656;28;1070;-62
2021/10/19 00:56:53;;;;;;;27.73;24.50;;;;;;;;;;696072;28;1295;-63
2021/10/19 00:57:13;;;;;;;27.88;23.95;;;;;;;;;;696649;28;1038;-63
2021/10/19 00:57:33;;;;;;;27.43;24.20;;;;;;;;;;696728;28;936;-63
2021/10/19 00:57:54;;;;;;;27.63;24.52;;;;;;;;;;696447;28;1195;-63
2021/10/19 00:58:14;;;;;;;27.77;24.53;;;;;;;;;;696726;28;797;-63
2021/10/19 00:58:36;;;;;;;27.53;24.13;;;;;;;;;;696744;28;940;-63
2021/10/19 00:58:56;;;;;;;27.58;24.63;;;;;;;;;;696631;28;991;-62
2021/10/19 00:59:17;;;;;;;28.10;25.10;;;;;;;;;;696705;28;829;-62
2021/10/19 00:59:41;;;;;;;28.00;24.97;;;;;;;;;;696422;28;1303;-64
2021/10/19 01:00:02;;;;;;;28.25;24.90;;;;;;;;;;696493;28;1018;-63
2021/10/19 01:00:22;;;;;;;28.75;24.88;;;;;;;;;;696401;28;1099;-63
2021/10/19 01:00:43;;;;;;;27.33;24.33;;;;;;;;;;696420;28;777;-64
2021/10/19 01:01:03;;;;;;;27.63;24.63;;;;;;;;;;696479;28;1969;-63
2021/10/19 01:01:25;;;;;;;28.40;24.60;;;;;;;;;;696464;28;821;-63
2021/10/19 01:01:45;;;;;;;29.35;25.45;;;;;;;;;;696666;28;883;-63
2021/10/19 01:02:05;;;;;;;27.93;24.90;;;;;;;;;;696681;28;896;-63
2021/10/19 01:02:25;;;;;;;27.53;24.60;;;;;;;;;;696548;28;955;-63
2021/10/19 01:02:46;;;;;;;27.87;24.87;;;;;;;;;;696128;28;1292;-63
2021/10/19 01:03:06;;;;;;;27.88;24.88;;;;;;;;;;696736;28;860;-63
2021/10/19 01:03:26;;;;;;;28.73;24.40;;;;;;;;;;696635;28;848;-63
2021/10/19 01:03:46;;;;;;;28.02;25.00;;;;;;;;;;696662;28;924;-63
2021/10/19 01:04:07;;;;;;;29.30;26.13;;;;;;;;;;696504;28;971;-63
2021/10/19 01:04:27;;;;;;;29.13;25.90;;;;;;;;;;696681;28;955;-63
2021/10/19 01:04:47;;;;;;;29.03;25.83;;;;;;;;;;696706;28;874;-63
2021/10/19 01:05:07;;;;;;;28.87;25.03;;;;;;;;;;696619;28;975;-62
2021/10/19 01:05:30;;;;;;;29.38;25.42;;;;;;;;;;696595;28;833;-62
2021/10/19 01:05:51;;;;;;;29.27;26.05;;;;;;;;;;696588;28;1109;-62
2021/10/19 01:06:13;;;;;;;29.55;25.67;;;;;;;;;;696624;28;889;-63
2021/10/19 01:06:33;;;;;;;29.23;25.48;;;;;;;;;;696744;28;879;-63
2021/10/19 01:06:53;;;;;;;28.57;25.47;;;;;;;;;;696586;28;1066;-62
2021/10/19 01:07:14;;;;;;;29.20;25.98;;;;;;;;;;696731;28;871;-63
2021/10/19 01:07:34;;;;;;;29.98;26.77;;;;;;;;;;696625;28;971;-63
2021/10/19 01:07:55;;;;;;;29.27;26.10;;;;;;;;;;696600;28;809;-63
2021/10/19 01:08:18;;;;;;;28.90;25.80;;;;;;;;;;696609;28;774;-63
2021/10/19 01:08:38;;;;;;;29.35;26.17;;;;;;;;;;696584;28;931;-63
2021/10/19 01:08:59;;;;;;;29.47;25.97;;;;;;;;;;696744;28;904;-63
2021/10/19 01:09:19;;;;;;;31.15;26.42;;;;;;;;;;696601;28;987;-63
2021/10/19 01:09:39;;;;;;;32.00;27.00;;;;;;;;;;696604;28;835;-63
2021/10/19 01:10:01;;;;;;;29.13;25.93;;;;;;;;;;696664;28;928;-66
2021/10/19 01:10:21;;;;;;;28.70;25.60;;;;;;;;;;696718;28;817;-64
2021/10/19 01:10:43;;;;;;;30.10;26.23;;;;;;;;;;696571;28;987;-62
2021/10/19 01:11:07;;;;;;;31.77;26.55;;;;;;;;;;696774;28;1062;-63
2021/10/19 01:11:27;;;;;;;29.65;25.92;;;;;;;;;;696630;28;974;-62
2021/10/19 01:11:48;;;;;;;30.33;26.37;;;;;;;;;;696663;28;816;-63
2021/10/19 01:12:09;;;;;;;29.20;26.00;;;;;;;;;;696702;28;876;-62
2021/10/19 01:12:29;;;;;;;30.83;26.77;;;;;;;;;;696648;28;872;-62
2021/10/19 01:12:49;;;;;;;31.20;27.17;;;;;;;;;;696125;28;1312;-63
2021/10/19 01:13:09;;;;;;;32.50;27.17;;;;;;;;;;696670;28;852;-63
2021/10/19 01:13:30;;;;;;;30.37;26.63;;;;;;;;;;696606;28;979;-63
2021/10/19 01:13:50;;;;;;;29.60;26.45;;;;;;;;;;696573;28;1074;-62
2021/10/19 01:14:11;;;;;;;29.90;26.70;;;;;;;;;;696558;28;899;-63
2021/10/19 01:14:31;;;;;;;29.80;26.60;;;;;;;;;;696706;28;935;-63
2021/10/19 01:14:51;;;;;;;30.02;26.73;;;;;;;;;;696513;28;943;-63
2021/10/19 01:15:13;;;;;;;31.90;26.93;;;;;;;;;;696652;28;1054;-62
2021/10/19 01:15:33;;;;;;;30.40;26.27;;;;;;;;;;696575;28;888;-62
2021/10/19 01:16:03;;;;;;;29.63;25.83;;;;;;;;;;696494;28;853;-62
2021/10/19 01:16:23;;;;;;;30.08;26.00;;;;;;;;;;696652;28;924;-62
2021/10/19 01:16:44;;;;;;;29.38;26.25;;;;;;;;;;696613;28;800;-62
2021/10/19 01:17:04;;;;;;;29.77;26.53;;;;;;;;;;696647;28;856;-62
2021/10/19 01:17:25;;;;;;;29.13;25.70;;;;;;;;;;696601;28;923;-62
2021/10/19 01:17:50;;;;;;;30.43;26.00;;;;;;;;;;696499;28;1030;-63
2021/10/19 01:18:12;;;;;;;30.15;26.05;;;;;;;;;;696690;28;741;-63
2021/10/19 01:18:33;;;;;;;29.55;26.38;;;;;;;;;;696571;28;945;-63
2021/10/19 01:18:53;;;;;;;29.85;26.48;;;;;;;;;;696669;28;831;-62
2021/10/19 01:19:21;;;;;;;29.20;26.00;;;;;;;;;;696637;28;990;-62
2021/10/19 01:19:41;;;;;;;29.50;26.33;;;;;;;;;;696477;28;1335;-62
2021/10/19 01:20:36;;;;;;;30.53;26.53;;;;;;;;;;696543;28;935;-63
2021/10/19 01:20:57;;;;;;;30.48;26.88;;;;;;;;;;693354;28;1914;-64
2021/10/19 01:21:17;;;;;;;30.77;26.50;;;;;;;;;;693419;28;990;-63
2021/10/19 01:21:37;;;;;;;29.43;26.27;;;;;;;;;;693458;28;987;-63
2021/10/19 01:21:59;;;;;;;29.67;25.93;;;;;;;;;;693516;28;1038;-63
2021/10/19 01:22:20;;;;;;;30.83;26.50;;;;;;;;;;693460;28;864;-63
2021/10/19 01:22:40;;;;;;;29.63;26.13;;;;;;;;;;693167;28;1235;-63
2021/10/19 01:23:01;;;;;;;30.10;26.50;;;;;;;;;;693221;28;883;-63
2021/10/19 01:23:21;;;;;;;31.15;26.83;;;;;;;;;;693554;28;816;-63
2021/10/19 01:23:41;;;;;;;32.10;27.07;;;;;;;;;;694720;28;1051;-64
2021/10/19 01:24:01;;;;;;;30.00;26.57;;;;;;;;;;696448;28;1044;-63
2021/10/19 01:24:22;;;;;;;30.08;26.48;;;;;;;;;;696625;28;895;-63
2021/10/19 01:24:43;;;;;;;29.33;26.10;;;;;;;;;;696663;28;816;-62
2021/10/19 01:25:04;;;;;;;29.42;26.13;;;;;;;;;;696695;28;915;-63
2021/10/19 01:25:26;;;;;;;30.27;26.63;;;;;;;;;;696484;28;910;-63
2021/10/19 01:25:48;;;;;;;30.70;26.88;;;;;;;;;;696425;28;1093;-63
2021/10/19 01:26:09;;;;;;;31.42;27.17;;;;;;;;;;696506;28;836;-63
2021/10/19 01:26:29;;;;;;;30.80;26.75;;;;;;;;;;696600;28;861;-63
2021/10/19 01:26:49;;;;;;;30.40;26.27;;;;;;;;;;696530;28;998;-63
2021/10/19 01:27:09;;;;;;;30.40;26.83;;;;;;;;;;696680;28;910;-63
2021/10/19 01:27:32;;;;;;;29.90;26.60;;;;;;;;;;696543;28;907;-63
2021/10/19 01:27:55;;;;;;;30.40;26.88;;;;;;;;;;696577;28;923;-63
2021/10/19 01:28:19;;;;;;;31.27;26.95;;;;;;;;;;696563;28;886;-63
2021/10/19 01:28:43;;;;;;;30.38;26.60;;;;;;;;;;696525;28;943;-64
2021/10/19 01:29:03;;;;;;;31.23;26.40;;;;;;;;;;696601;28;962;-63
2021/10/19 01:29:23;;;;;;;32.13;27.10;;;;;;;;;;696522;28;901;-63
2021/10/19 01:29:43;;;;;;;31.23;26.93;;;;;;;;;;696582;28;1286;-64
2021/10/19 01:30:04;;;;;;;30.50;27.00;;;;;;;;;;696521;28;821;-64
2021/10/19 01:30:24;;;;;;;30.30;26.92;;;;;;;;;;696503;28;939;-63
2021/10/19 01:30:46;;;;;;;31.13;27.10;;;;;;;;;;696692;28;817;-64
2021/10/19 01:31:07;;;;;;;32.35;27.55;;;;;;;;;;696445;28;1453;-63
2021/10/19 01:31:27;;;;;;;32.40;27.70;;;;;;;;;;696630;28;800;-63
2021/10/19 01:31:47;;;;;;;31.20;27.63;;;;;;;;;;696673;28;822;-63
2021/10/19 01:32:07;;;;;;;30.57;26.30;;;;;;;;;;696377;28;837;-63
2021/10/19 01:32:28;;;;;;;30.50;26.47;;;;;;;;;;696665;28;848;-62
2021/10/19 01:32:48;;;;;;;29.67;25.87;;;;;;;;;;696053;28;1350;-63
2021/10/19 01:33:08;;;;;;;30.38;27.08;;;;;;;;;;696719;28;1050;-62
2021/10/19 01:33:32;;;;;;;29.97;26.77;;;;;;;;;;696702;28;994;-63
2021/10/19 01:33:55;;;;;;;30.52;26.38;;;;;;;;;;696396;28;897;-63
2021/10/19 01:34:16;;;;;;;30.60;26.90;;;;;;;;;;696448;28;881;-62
2021/10/19 01:34:36;;;;;;;30.77;27.17;;;;;;;;;;696738;28;868;-63
2021/10/19 01:34:56;;;;;;;30.48;26.88;;;;;;;;;;696536;28;1049;-62
2021/10/19 01:35:16;;;;;;;31.40;27.50;;;;;;;;;;696698;28;832;-63
2021/10/19 01:35:41;;;;;;;33.17;27.63;;;;;;;;;;696633;28;975;-63
2021/10/19 01:36:01;;;;;;;30.70;27.15;;;;;;;;;;696584;28;868;-63
2021/10/19 01:36:21;;;;;;;29.93;26.70;;;;;;;;;;696438;28;1049;-63
2021/10/19 01:36:42;;;;;;;30.53;27.23;;;;;;;;;;696583;28;984;-62
2021/10/19 01:37:03;;;;;;;31.15;27.30;;;;;;;;;;696500;28;1246;-62
2021/10/19 01:37:23;;;;;;;30.92;27.05;;;;;;;;;;696528;28;1034;-63
2021/10/19 01:37:44;;;;;;;29.73;26.50;;;;;;;;;;696572;28;998;-64
2021/10/19 01:38:06;;;;;;;30.77;27.30;;;;;;;;;;696517;28;911;-63
2021/10/19 01:38:28;;;;;;;30.80;27.15;;;;;;;;;;696466;28;1105;-64
2021/10/19 01:38:48;;;;;;;31.25;27.35;;;;;;;;;;696613;28;809;-63
2021/10/19 01:39:09;;;;;;;32.53;27.88;;;;;;;;;;696532;28;943;-64
2021/10/19 01:39:29;;;;;;;31.53;28.00;;;;;;;;;;696806;28;840;-63
2021/10/19 01:39:49;;;;;;;32.47;27.90;;;;;;;;;;696588;28;823;-64
2021/10/19 01:40:14;;;;;;;32.10;27.73;;;;;;;;;;696392;28;974;-63
2021/10/19 01:40:34;;;;;;;31.88;26.95;;;;;;;;;;696581;28;836;-62
2021/10/19 01:40:56;;;;;;;31.43;26.77;;;;;;;;;;696458;28;1910;-62
2021/10/19 01:41:16;;;;;;;30.30;27.00;;;;;;;;;;696622;28;1003;-63
2021/10/19 01:41:37;;;;;;;30.07;26.87;;;;;;;;;;696668;28;793;-62
2021/10/19 01:41:57;;;;;;;30.92;27.52;;;;;;;;;;696720;28;828;-63
2021/10/19 01:42:17;;;;;;;31.07;27.50;;;;;;;;;;696435;28;1359;-63
2021/10/19 01:42:50;;;;;;;31.90;27.03;;;;;;;;;;696555;28;1372;-63
2021/10/19 01:43:14;;;;;;;31.70;28.10;;;;;;;;;;696655;28;963;-63
2021/10/19 01:43:34;;;;;;;32.15;27.02;;;;;;;;;;696639;28;789;-63
2021/10/19 01:43:55;;;;;;;32.72;27.17;;;;;;;;;;696618;28;871;-63
2021/10/19 01:44:15;;;;;;;30.63;26.73;;;;;;;;;;696606;28;1280;-63
2021/10/19 01:44:35;;;;;;;30.60;26.33;;;;;;;;;;696606;28;900;-62
2021/10/19 01:44:55;;;;;;;30.77;26.60;;;;;;;;;;696972;28;995;-62
2021/10/19 01:45:16;;;;;;;30.33;26.67;;;;;;;;;;696458;28;1502;-63
2021/10/19 01:45:37;;;;;;;29.60;26.33;;;;;;;;;;696422;28;939;-63
2021/10/19 01:45:58;;;;;;;32.17;27.43;;;;;;;;;;696607;28;817;-63
2021/10/19 01:46:22;;;;;;;32.15;26.98;;;;;;;;;;696478;28;951;-63
2021/10/19 01:46:42;;;;;;;30.85;27.02;;;;;;;;;;696464;28;872;-64
2021/10/19 01:47:02;;;;;;;30.57;26.70;;;;;;;;;;696460;28;880;-64
2021/10/19 01:47:25;;;;;;;31.40;27.10;;;;;;;;;;696579;28;940;-64
2021/10/19 01:47:45;;;;;;;30.08;26.40;;;;;;;;;;696762;28;860;-64
2021/10/19 01:48:06;;;;;;;30.27;26.13;;;;;;;;;;696370;28;1242;-63
2021/10/19 01:48:27;;;;;;;31.58;27.30;;;;;;;;;;696558;28;868;-64
2021/10/19 01:48:47;;;;;;;30.73;27.10;;;;;;;;;;696523;28;947;-64
2021/10/19 01:49:07;;;;;;;30.37;26.83;;;;;;;;;;696463;28;932;-64
2021/10/19 01:49:28;;;;;;;30.43;26.70;;;;;;;;;;696553;28;884;-64
2021/10/19 01:49:48;;;;;;;32.13;27.45;;;;;;;;;;696574;28;1383;-64
2021/10/19 01:50:09;;;;;;;30.83;26.37;;;;;;;;;;696385;28;887;-63
2021/10/19 01:50:29;;;;;;;32.03;26.58;;;;;;;;;;696673;28;859;-63
2021/10/19 01:50:49;;;;;;;30.30;26.30;;;;;;;;;;696403;28;1045;-63
2021/10/19 01:51:09;;;;;;;30.13;26.83;;;;;;;;;;696429;28;991;-63
2021/10/19 01:51:29;;;;;;;30.30;26.87;;;;;;;;;;696745;28;960;-63
2021/10/19 01:51:49;;;;;;;29.88;26.50;;;;;;;;;;696449;28;856;-63
2021/10/19 01:52:16;;;;;;;30.97;26.53;;;;;;;;;;696390;28;1550;-63
2021/10/19 01:52:39;;;;;;;30.77;26.17;;;;;;;;;;696344;28;1341;-63
2021/10/19 01:53:06;;;;;;;30.27;26.05;;;;;;;;;;696285;28;896;-63
2021/10/19 01:53:26;;;;;;;29.42;25.98;;;;;;;;;;696588;28;852;-64
2021/10/19 01:53:47;;;;;;;30.00;26.80;;;;;;;;;;696509;28;929;-64
2021/10/19 01:54:07;;;;;;;30.30;26.40;;;;;;;;;;696562;28;966;-64
2021/10/19 01:54:30;;;;;;;29.30;25.30;;;;;;;;;;696159;28;1405;-64
2021/10/19 01:54:50;;;;;;;30.25;26.45;;;;;;;;;;696096;28;907;-64
2021/10/19 01:55:10;;;;;;;30.43;26.00;;;;;;;;;;696555;28;780;-63
2021/10/19 01:55:30;;;;;;;28.77;25.67;;;;;;;;;;696545;28;1097;-63
2021/10/19 01:55:51;;;;;;;30.50;26.10;;;;;;;;;;696603;28;801;-63
2021/10/19 01:56:11;;;;;;;30.43;26.17;;;;;;;;;;696497;28;934;-63
2021/10/19 01:56:31;;;;;;;29.83;26.53;;;;;;;;;;696496;28;922;-63
2021/10/19 01:56:51;;;;;;;31.03;26.30;;;;;;;;;;696461;28;974;-62
2021/10/19 01:57:11;;;;;;;29.17;25.27;;;;;;;;;;696386;28;1008;-62
2021/10/19 01:57:31;;;;;;;29.37;24.97;;;;;;;;;;696706;28;872;-62
2021/10/19 01:57:52;;;;;;;29.70;25.60;;;;;;;;;;696598;28;797;-64
2021/10/19 01:58:12;;;;;;;30.43;25.67;;;;;;;;;;696372;28;1137;-64
2021/10/19 01:58:32;;;;;;;31.07;26.53;;;;;;;;;;696587;28;868;-64
2021/10/19 01:58:52;;;;;;;31.93;26.60;;;;;;;;;;696609;28;864;-63
2021/10/19 01:59:13;;;;;;;30.67;26.20;;;;;;;;;;696396;28;990;-64
2021/10/19 01:59:33;;;;;;;30.30;26.43;;;;;;;;;;696700;28;951;-64
2021/10/19 01:59:53;;;;;;;30.30;26.87;;;;;;;;;;696486;28;872;-64
2021/10/19 02:00:13;;;;;;;30.30;26.63;;;;;;;;;;696533;28;959;-62
2021/10/19 02:00:34;;;;;;;30.85;26.48;;;;;;;;;;696674;28;935;-63
2021/10/19 02:00:54;;;;;;;29.73;25.25;;;;;;;;;;696324;28;1937;-64
2021/10/19 02:01:15;;;;;;;30.03;25.90;;;;;;;;;;696426;28;1026;-64
2021/10/19 02:01:37;;;;;;;29.13;26.00;;;;;;;;;;696600;28;1245;-64
2021/10/19 02:01:57;;;;;;;30.00;26.02;;;;;;;;;;696278;28;890;-64
2021/10/19 02:02:20;;;;;;;29.90;25.80;;;;;;;;;;696071;28;817;-64
2021/10/19 02:02:41;;;;;;;31.05;26.00;;;;;;;;;;695724;28;1324;-63
2021/10/19 02:03:04;;;;;;;29.23;25.90;;;;;;;;;;696446;28;938;-63
2021/10/19 02:03:24;;;;;;;29.13;25.77;;;;;;;;;;696467;28;1070;-62
2021/10/19 02:03:45;;;;;;;28.83;25.73;;;;;;;;;;696311;28;874;-62
2021/10/19 02:04:05;;;;;;;28.73;25.67;;;;;;;;;;696415;28;876;-63
2021/10/19 02:04:25;;;;;;;29.10;25.53;;;;;;;;;;696444;28;785;-62
2021/10/19 02:04:45;;;;;;;29.03;25.60;;;;;;;;;;696766;28;1097;-62
2021/10/19 02:05:06;;;;;;;29.47;25.47;;;;;;;;;;697092;28;975;-63
2021/10/19 02:05:26;;;;;;;29.15;25.55;;;;;;;;;;696314;28;1023;-64
2021/10/19 02:05:47;;;;;;;29.57;26.07;;;;;;;;;;696731;28;992;-63
2021/10/19 02:06:10;;;;;;;30.83;26.87;;;;;;;;;;697110;28;949;-63
2021/10/19 02:06:30;;;;;;;29.85;25.95;;;;;;;;;;697394;28;797;-64
2021/10/19 02:06:50;;;;;;;29.57;26.23;;;;;;;;;;697268;28;1002;-63
2021/10/19 02:07:10;;;;;;;30.75;26.42;;;;;;;;;;697197;28;871;-63